Etusivu
METAR-TAF:

METAR-TAF

Lentoasemat :

Town MET

Windhoek, Namibia

Leveyspiiri: 22-34S, Pituuspiiri: 017-06E, korkeus merenpinnasta: 1725 m

Tämänhetkinen sää

Tämä raportti tehtiin 4 tuntia ja 29 minuuttia sitten, kello 06.00 UTC
Tuuli 13 kn idästä puuskistuen 27 kn:hen
Lämpötila 20°C
Kosteus 15%
Ilmanpaine 1023 hPa

METAR: FYWW 100600Z AUTO 10013G27KT //// // ////// 20/M07 Q1023

Aika: 12:29 (10:29 UTC)


TAF: puuttuu

Säähavainnot ja -ennusteet yli 4000 lentoasemalta (METAR- ja TAF-raportit).

Käytössä olevat sääasemat on merkitty karttaan keltaisilla ja punaisilla pisteillä.

Aseta hiiri pisteen päälle nähdäksesi sääaseman nimen.

Klikkaa sitten nähdäksesi säähavainnot ja -ennusteet.

Kartan vaihtaminen: klikkaa mustalla rastilla varustettuja vihreitä pisteitä, niin voit zoomata sisään; viivalla varustettua vihreää pistettä, niin voit zoomata ulos tai vihreitä nuolia, niin pääset viereisille kartoille.


METAR-TAF: